Time;durP1;ratioP1;P1;durP2;ratioP2;P2;SDS_P1;SDS_P2;PMS_P1;PMS_P2;Temp;Humidity;BMP_temperature;BMP_pressure;BME280_temperature;BME280_humidity;BME280_pressure;Samples;Min_cycle;Max_cycle;Signal;HPM_P1;HPM_P2
2022/04/20 00:01:57;;;;;;;2.97;2.20;;;15.10;40.20;;;;;;5095172;28;20476;-71
2022/04/20 00:04:24;;;;;;;2.17;1.70;;;15.10;41.10;;;;;;5095109;28;20451;-71
2022/04/20 00:06:51;;;;;;;5.40;2.60;;;15.10;40.80;;;;;;5094643;28;20819;-72
2022/04/20 00:09:19;;;;;;;3.33;2.73;;;15.00;40.60;;;;;;5094906;28;20439;-71
2022/04/20 00:11:47;;;;;;;4.13;2.43;;;15.00;40.50;;;;;;5094902;28;20475;-71
2022/04/20 00:14:14;;;;;;;3.07;2.53;;;15.00;40.70;;;;;;5094703;28;20943;-71
2022/04/20 00:16:41;;;;;;;2.97;2.30;;;14.90;40.60;;;;;;5094938;28;20460;-72
2022/04/20 00:19:07;;;;;;;1.93;1.83;;;14.90;40.80;;;;;;5094772;28;20479;-71
2022/04/20 00:21:34;;;;;;;2.27;2.07;;;14.90;40.70;;;;;;5094743;28;20476;-71
2022/04/20 00:24:01;;;;;;;3.40;2.10;;;14.90;40.80;;;;;;5094815;28;20478;-71
2022/04/20 00:26:29;;;;;;;4.77;2.10;;;14.80;41.00;;;;;;5094839;28;20440;-71
2022/04/20 00:28:56;;;;;;;3.17;2.10;;;14.80;41.20;;;;;;5094696;28;20440;-71
2022/04/20 00:31:22;;;;;;;3.53;2.50;;;14.70;41.10;;;;;;5094538;28;20472;-71
2022/04/20 00:33:49;;;;;;;3.30;2.00;;;14.70;41.10;;;;;;5094180;28;20450;-71
2022/04/20 00:36:17;;;;;;;2.50;2.30;;;14.70;41.30;;;;;;5094567;28;20463;-71
2022/04/20 00:38:44;;;;;;;2.97;2.23;;;14.60;41.00;;;;;;5094487;28;20480;-71
2022/04/20 00:41:11;;;;;;;3.10;2.87;;;14.60;40.90;;;;;;5094424;28;20463;-71
2022/04/20 00:43:39;;;;;;;3.63;2.30;;;14.50;41.20;;;;;;5094296;28;20821;-71
2022/04/20 00:46:07;;;;;;;2.50;2.30;;;14.50;41.30;;;;;;5094446;28;20462;-71
2022/04/20 00:48:38;;;;;;;3.07;2.30;;;14.50;41.60;;;;;;5093961;28;20442;-71
2022/04/20 00:51:05;;;;;;;6.10;2.50;;;14.40;41.50;;;;;;5093866;28;20878;-71
2022/04/20 00:53:32;;;;;;;3.40;2.30;;;14.40;41.60;;;;;;5094285;28;20451;-71
2022/04/20 00:55:59;;;;;;;2.93;2.17;;;14.30;41.80;;;;;;5094275;28;20854;-71
2022/04/20 00:58:26;;;;;;;1.90;1.80;;;14.30;41.70;;;;;;5094178;28;20851;-71
2022/04/20 01:00:55;;;;;;;2.47;2.23;;;14.20;41.80;;;;;;5094294;28;20475;-71
2022/04/20 01:03:22;;;;;;;2.30;2.10;;;14.20;42.40;;;;;;5093576;28;20458;-71
2022/04/20 01:05:48;;;;;;;3.33;2.43;;;14.20;42.10;;;;;;5094247;28;20447;-71
2022/04/20 01:08:15;;;;;;;5.37;2.33;;;14.10;42.20;;;;;;5093975;28;20444;-71
2022/04/20 01:10:42;;;;;;;2.37;2.17;;;14.10;42.40;;;;;;5093596;28;20468;-71
2022/04/20 01:13:09;;;;;;;2.20;2.00;;;14.00;42.40;;;;;;5094181;28;20514;-71
2022/04/20 01:15:36;;;;;;;2.60;2.40;;;14.00;42.50;;;;;;5094163;28;20451;-71
2022/04/20 01:18:12;;;;;;;3.53;1.83;;;14.00;42.70;;;;;;5093895;28;20479;-71
2022/04/20 01:20:41;;;;;;;2.17;1.97;;;13.90;42.90;;;;;;5093814;28;20850;-71
2022/04/20 01:23:08;;;;;;;2.93;2.00;;;13.90;43.20;;;;;;5093757;28;20447;-71
2022/04/20 01:25:35;;;;;;;3.63;2.07;;;13.80;43.20;;;;;;5093759;28;20451;-71
2022/04/20 01:28:02;;;;;;;2.50;2.03;;;13.80;43.20;;;;;;5093843;28;20505;-71
2022/04/20 01:30:30;;;;;;;2.10;1.90;;;13.80;43.30;;;;;;5093278;28;20969;-71
2022/04/20 01:32:57;;;;;;;1.73;1.63;;;13.80;43.30;;;;;;5093818;28;20456;-71
2022/04/20 01:35:24;;;;;;;2.20;2.00;;;13.70;43.10;;;;;;5093662;28;20435;-71
2022/04/20 01:37:52;;;;;;;2.17;1.97;;;13.70;43.30;;;;;;5093510;28;20488;-71
2022/04/20 01:40:19;;;;;;;2.73;2.03;;;13.60;43.40;;;;;;5093474;28;20447;-71
2022/04/20 01:42:46;;;;;;;2.60;2.00;;;13.60;43.50;;;;;;5093586;28;20471;-71
2022/04/20 01:45:13;;;;;;;2.27;1.90;;;13.60;43.50;;;;;;5093555;28;20474;-71
2022/04/20 01:47:42;;;;;;;4.30;2.53;;;13.50;43.60;;;;;;5093460;28;20455;-71
2022/04/20 01:50:09;;;;;;;3.07;2.13;;;13.50;43.80;;;;;;5093136;28;20448;-71
2022/04/20 01:52:36;;;;;;;1.93;1.83;;;13.50;43.90;;;;;;5093434;28;20463;-71
2022/04/20 01:55:05;;;;;;;4.60;2.50;;;13.50;44.10;;;;;;5093510;28;20448;-71
2022/04/20 01:57:33;;;;;;;3.67;2.37;;;13.40;44.30;;;;;;5093170;28;20920;-71
2022/04/20 02:00:00;;;;;;;3.40;1.80;;;13.40;44.50;;;;;;5093768;28;20589;-71
2022/04/20 02:02:35;;;;;;;2.50;2.30;;;13.40;44.40;;;;;;5097752;28;20468;-71
2022/04/20 02:05:03;;;;;;;2.80;2.23;;;13.40;44.50;;;;;;5097615;28;20829;-71
2022/04/20 02:07:31;;;;;;;2.90;2.13;;;13.30;44.50;;;;;;5097130;28;20476;-71
2022/04/20 02:09:58;;;;;;;3.70;1.90;;;13.30;44.60;;;;;;5097378;28;20488;-71
2022/04/20 02:12:26;;;;;;;2.10;1.90;;;13.20;44.50;;;;;;5097560;28;20470;-71
2022/04/20 02:14:53;;;;;;;2.80;1.83;;;13.20;44.70;;;;;;5097333;28;20439;-71
2022/04/20 02:17:20;;;;;;;4.40;2.40;;;13.20;45.00;;;;;;5097369;28;20534;-71
2022/04/20 02:19:47;;;;;;;2.50;2.30;;;13.20;45.10;;;;;;5097058;28;20487;-71
2022/04/20 02:22:14;;;;;;;3.27;2.30;;;13.10;45.10;;;;;;5097089;28;20467;-71
2022/04/20 02:24:41;;;;;;;3.33;2.40;;;13.10;45.20;;;;;;5097108;28;20564;-70
2022/04/20 02:27:09;;;;;;;3.23;2.27;;;13.10;45.40;;;;;;5097118;28;20439;-70
2022/04/20 02:29:38;;;;;;;3.83;2.23;;;13.00;45.40;;;;;;5096808;28;20439;-71
2022/04/20 02:32:06;;;;;;;2.70;2.50;;;13.00;45.50;;;;;;5096889;28;20471;-71
2022/04/20 02:34:33;;;;;;;3.03;2.37;;;12.90;45.50;;;;;;5096828;28;20451;-71
2022/04/20 02:37:00;;;;;;;3.47;2.60;;;12.90;45.70;;;;;;5096819;28;20455;-71
2022/04/20 02:39:27;;;;;;;4.50;2.93;;;12.80;45.90;;;;;;5096705;28;20567;-71
2022/04/20 02:41:54;;;;;;;4.43;2.97;;;12.80;46.10;;;;;;5096744;28;20550;-71
2022/04/20 02:44:21;;;;;;;4.60;3.10;;;12.80;46.10;;;;;;5096702;28;20449;-71
2022/04/20 02:46:49;;;;;;;3.90;2.53;;;12.70;46.30;;;;;;5096674;28;20456;-71
2022/04/20 02:49:17;;;;;;;3.90;2.53;;;12.70;46.40;;;;;;5096551;28;20462;-71
2022/04/20 02:51:43;;;;;;;4.20;2.70;;;12.70;46.60;;;;;;5096613;28;20525;-71
2022/04/20 02:54:10;;;;;;;5.27;3.33;;;12.60;46.60;;;;;;5096677;28;20542;-71
2022/04/20 02:56:37;;;;;;;7.27;3.10;;;12.60;46.90;;;;;;5096412;28;20452;-71
2022/04/20 02:59:04;;;;;;;2.60;2.40;;;12.50;46.90;;;;;;5096300;28;20476;-71
2022/04/20 03:01:31;;;;;;;4.40;2.20;;;12.50;46.90;;;;;;5096386;28;20471;-71
2022/04/20 03:04:00;;;;;;;3.30;2.60;;;12.50;47.10;;;;;;5096144;28;20483;-71
2022/04/20 03:06:28;;;;;;;4.50;2.80;;;12.40;47.20;;;;;;5096112;28;20451;-71
2022/04/20 03:08:54;;;;;;;5.67;2.73;;;12.40;47.30;;;;;;5096253;28;20875;-71
2022/04/20 03:11:22;;;;;;;4.13;2.63;;;12.40;47.30;;;;;;5095838;28;20490;-71
2022/04/20 03:13:49;;;;;;;5.17;2.40;;;12.40;47.30;;;;;;5095251;28;20448;-71
2022/04/20 03:16:16;;;;;;;3.70;2.47;;;12.30;47.40;;;;;;5096255;28;20451;-71
2022/04/20 03:18:44;;;;;;;3.97;2.40;;;12.30;47.40;;;;;;5095568;28;20997;-71
2022/04/20 03:21:12;;;;;;;7.60;2.80;;;12.30;47.20;;;;;;5095964;28;20479;-71
2022/04/20 03:23:38;;;;;;;3.43;2.90;;;12.30;47.30;;;;;;5095703;28;20479;-71
2022/04/20 03:26:06;;;;;;;3.93;2.53;;;12.30;47.30;;;;;;5095854;28;20448;-71
2022/04/20 03:28:33;;;;;;;3.07;2.60;;;12.30;47.30;;;;;;5095673;28;20452;-72
2022/04/20 03:31:01;;;;;;;3.90;2.50;;;12.30;47.40;;;;;;5095741;28;20482;-71
2022/04/20 03:33:28;;;;;;;2.43;2.27;;;12.20;47.60;;;;;;5095510;28;20826;-71
2022/04/20 03:35:55;;;;;;;3.10;2.80;;;12.20;47.80;;;;;;5095545;28;20953;-71
2022/04/20 03:38:23;;;;;;;4.17;2.67;;;12.20;48.10;;;;;;5095761;28;20439;-71
2022/04/20 03:40:50;;;;;;;4.20;3.23;;;12.20;48.20;;;;;;5095630;28;20465;-71
2022/04/20 03:43:17;;;;;;;5.53;2.43;;;12.10;48.20;;;;;;5095695;28;20439;-71
2022/04/20 03:45:43;;;;;;;3.37;3.03;;;12.10;48.80;;;;;;5095547;28;20493;-71
2022/04/20 03:48:10;;;;;;;2.37;2.03;;;12.10;48.90;;;;;;5095439;28;20463;-71
2022/04/20 03:50:37;;;;;;;4.10;2.40;;;12.10;48.60;;;;;;5095172;28;20443;-71
2022/04/20 03:53:04;;;;;;;4.13;2.93;;;12.00;48.50;;;;;;5095413;28;20444;-71
2022/04/20 03:55:33;;;;;;;2.57;2.37;;;12.00;48.60;;;;;;5095515;28;20484;-71
2022/04/20 03:58:00;;;;;;;2.60;2.40;;;12.00;48.80;;;;;;5096002;28;20448;-71
2022/04/20 04:00:28;;;;;;;3.87;2.77;;;11.90;48.80;;;;;;5096372;28;20487;-71
2022/04/20 04:02:55;;;;;;;6.13;2.93;;;11.90;48.70;;;;;;5095869;28;20474;-71
2022/04/20 04:05:22;;;;;;;3.07;2.77;;;11.90;48.90;;;;;;5095369;28;20448;-71
2022/04/20 04:07:49;;;;;;;5.33;3.07;;;11.80;48.90;;;;;;5095174;28;20451;-71
2022/04/20 04:10:15;;;;;;;5.53;2.80;;;11.80;49.10;;;;;;5094825;28;20471;-71
2022/04/20 04:12:44;;;;;;;3.00;2.70;;;11.80;49.40;;;;;;5094948;28;20471;-71
2022/04/20 04:15:11;;;;;;;3.47;2.40;;;11.70;49.40;;;;;;5094981;28;20530;-71
2022/04/20 04:17:38;;;;;;;3.87;2.60;;;11.70;49.50;;;;;;5094845;28;20455;-71
2022/04/20 04:20:07;;;;;;;3.50;2.53;;;11.70;49.80;;;;;;5094864;28;20484;-71
2022/04/20 04:22:35;;;;;;;5.13;2.90;;;11.60;49.90;;;;;;5093610;28;20479;-71
2022/04/20 04:25:02;;;;;;;4.20;3.20;;;11.60;50.10;;;;;;5094700;28;20458;-71
2022/04/20 04:27:29;;;;;;;5.30;2.73;;;11.60;50.10;;;;;;5094830;28;20443;-71
2022/04/20 04:29:58;;;;;;;4.50;3.00;;;11.60;50.20;;;;;;5094641;28;20452;-71
2022/04/20 04:32:25;;;;;;;5.57;2.57;;;11.60;50.50;;;;;;5094243;28;20479;-71
2022/04/20 04:34:52;;;;;;;4.30;2.53;;;11.60;50.60;;;;;;5094421;28;20447;-71
2022/04/20 04:37:19;;;;;;;3.50;3.13;;;11.50;50.80;;;;;;5093399;28;20462;-71
2022/04/20 04:39:46;;;;;;;3.50;3.20;;;11.50;51.00;;;;;;5094330;28;20491;-71
2022/04/20 04:42:12;;;;;;;5.17;3.00;;;11.50;51.20;;;;;;5094322;28;20468;-70
2022/04/20 04:44:39;;;;;;;5.03;2.90;;;11.50;51.40;;;;;;5094308;28;20451;-70
2022/04/20 04:49:52;;;;;;;5.03;3.20;;;11.40;51.70;;;;;;5094018;28;20482;-70
2022/04/20 04:52:19;;;;;;;4.60;3.07;;;11.40;51.70;;;;;;5094211;28;20463;-71
2022/04/20 04:54:46;;;;;;;6.03;3.17;;;11.40;51.80;;;;;;5093768;28;20939;-70
2022/04/20 04:57:13;;;;;;;3.60;2.80;;;11.40;52.10;;;;;;5093881;28;20448;-70
2022/04/20 04:59:41;;;;;;;2.87;2.63;;;11.40;52.20;;;;;;5093892;28;20476;-70
2022/04/20 05:02:10;;;;;;;3.67;2.80;;;11.40;52.30;;;;;;5094212;28;20463;-71
2022/04/20 05:04:38;;;;;;;4.57;2.93;;;11.40;52.40;;;;;;5093680;28;20449;-70
2022/04/20 05:07:05;;;;;;;3.40;3.10;;;11.40;52.60;;;;;;5093709;28;20450;-70
2022/04/20 05:09:32;;;;;;;3.70;2.97;;;11.40;52.70;;;;;;5093557;28;20443;-71
2022/04/20 05:12:01;;;;;;;4.30;3.00;;;11.40;52.70;;;;;;5094132;28;20472;-71
2022/04/20 05:14:27;;;;;;;4.33;3.23;;;11.40;52.90;;;;;;5093942;28;20456;-71
2022/04/20 05:16:55;;;;;;;4.27;3.70;;;11.30;52.80;;;;;;5093810;28;20853;-70
2022/04/20 05:19:23;;;;;;;4.37;3.47;;;11.30;53.00;;;;;;5093651;28;20480;-70
2022/04/20 05:21:50;;;;;;;3.80;2.27;;;11.20;53.10;;;;;;5093822;28;20819;-70
2022/04/20 05:24:17;;;;;;;3.43;2.83;;;11.20;53.30;;;;;;5093490;28;20816;-70
2022/04/20 05:26:44;;;;;;;5.73;3.00;;;11.10;53.40;;;;;;5093910;28;20447;-71
2022/04/20 05:29:12;;;;;;;3.60;3.23;;;11.10;53.90;;;;;;5093426;28;20974;-70
2022/04/20 05:31:39;;;;;;;8.40;3.10;;;11.10;54.50;;;;;;5093635;28;20489;-70
2022/04/20 05:34:05;;;;;;;3.43;2.93;;;11.00;55.20;;;;;;5093290;28;20470;-70
2022/04/20 05:41:58;;;;;;;3.30;2.97;;;11.00;55.80;;;;;;5093270;28;20966;-70
2022/04/20 05:44:25;;;;;;;3.40;3.10;;;11.00;56.40;;;;;;5093227;28;20961;-70
2022/04/20 05:46:52;;;;;;;3.10;2.90;;;11.00;56.40;;;;;;5093494;28;20432;-70
2022/04/20 05:49:18;;;;;;;6.10;3.77;;;11.00;56.70;;;;;;5093663;28;20804;-70
2022/04/20 05:51:47;;;;;;;5.27;2.73;;;11.00;56.90;;;;;;5093410;28;20464;-70
2022/04/20 05:54:13;;;;;;;5.47;2.67;;;11.10;57.20;;;;;;5093933;28;20447;-70
2022/04/20 05:56:40;;;;;;;4.37;3.13;;;11.10;57.50;;;;;;5093859;28;20501;-70
2022/04/20 05:59:07;;;;;;;3.00;2.67;;;11.20;57.80;;;;;;5093418;28;20847;-70
2022/04/20 06:01:34;;;;;;;6.20;3.90;;;11.30;58.00;;;;;;5092988;28;20475;-70
2022/04/20 06:04:00;;;;;;;4.07;3.07;;;11.30;57.90;;;;;;5093289;28;20476;-70
2022/04/20 06:06:28;;;;;;;7.83;3.57;;;11.40;58.40;;;;;;5093506;28;20458;-70
2022/04/20 06:08:56;;;;;;;3.53;3.00;;;11.40;58.20;;;;;;5093180;28;20918;-70
2022/04/20 06:11:24;;;;;;;6.13;2.83;;;11.50;57.40;;;;;;5092975;28;20490;-70
2022/04/20 06:13:51;;;;;;;3.03;2.83;;;11.60;57.20;;;;;;5093326;28;20448;-70
2022/04/20 06:16:17;;;;;;;2.37;2.10;;;11.70;56.70;;;;;;5093258;28;20458;-70
2022/04/20 06:18:44;;;;;;;2.10;2.00;;;11.80;56.50;;;;;;5093324;28;20440;-71
2022/04/20 06:21:11;;;;;;;2.33;2.17;;;11.90;55.90;;;;;;5093069;28;20513;-71
2022/04/20 06:23:38;;;;;;;3.30;2.70;;;12.00;55.60;;;;;;5093189;28;20451;-71
2022/04/20 06:26:06;;;;;;;3.67;2.30;;;12.10;55.10;;;;;;5093212;28;20459;-71
2022/04/20 06:28:33;;;;;;;6.93;2.60;;;12.20;54.60;;;;;;5093393;28;20448;-71
2022/04/20 06:30:59;;;;;;;4.00;2.80;;;12.30;54.50;;;;;;5093160;28;20471;-71
2022/04/20 06:33:26;;;;;;;4.40;2.30;;;12.40;54.30;;;;;;5093089;28;20451;-71
2022/04/20 06:35:53;;;;;;;4.90;2.23;;;12.60;53.90;;;;;;5093346;28;20456;-69
2022/04/20 06:38:21;;;;;;;4.47;2.87;;;12.70;53.50;;;;;;5093005;28;20455;-69
2022/04/20 06:40:48;;;;;;;3.77;2.50;;;12.80;53.50;;;;;;5092917;28;20488;-69
2022/04/20 06:43:16;;;;;;;3.00;2.40;;;12.90;53.80;;;;;;5093069;28;20447;-70
2022/04/20 06:45:44;;;;;;;2.93;2.63;;;13.00;53.40;;;;;;5093053;28;20492;-70
2022/04/20 06:48:11;;;;;;;3.27;2.30;;;13.20;53.00;;;;;;5094584;28;20463;-69
2022/04/20 06:50:41;;;;;;;3.10;2.60;;;13.30;52.80;;;;;;5096412;28;20441;-69
2022/04/20 06:58:39;;;;;;;2.20;2.03;;;13.70;51.90;;;;;;5096602;28;20458;-70
2022/04/20 07:01:07;;;;;;;3.60;2.63;;;13.90;51.20;;;;;;5096154;28;20492;-71
2022/04/20 07:03:35;;;;;;;3.70;2.77;;;14.00;50.50;;;;;;5096608;28;20444;-71
2022/04/20 07:06:03;;;;;;;2.30;2.10;;;14.20;49.70;;;;;;5096078;28;20966;-70
2022/04/20 07:08:30;;;;;;;3.47;2.20;;;14.30;49.00;;;;;;5096266;28;20432;-70
2022/04/20 07:10:57;;;;;;;6.40;2.70;;;14.40;48.50;;;;;;5095968;28;20562;-70
2022/04/20 07:13:24;;;;;;;2.90;2.53;;;14.50;48.10;;;;;;5096413;28;20444;-71
2022/04/20 07:15:53;;;;;;;7.33;2.77;;;14.60;47.10;;;;;;5096235;28;20447;-71
2022/04/20 07:18:19;;;;;;;4.97;3.30;;;14.80;47.20;;;;;;5096154;28;20467;-71
2022/04/20 07:20:46;;;;;;;5.00;2.70;;;14.90;46.40;;;;;;5096208;28;20475;-71
2022/04/20 07:23:13;;;;;;;3.00;2.70;;;15.10;46.10;;;;;;5096160;28;20463;-70
2022/04/20 07:25:40;;;;;;;3.67;2.43;;;15.20;45.90;;;;;;5096368;28;20452;-70
2022/04/20 07:28:08;;;;;;;4.30;2.27;;;15.40;45.80;;;;;;5096352;28;20448;-70
2022/04/20 07:30:35;;;;;;;6.33;2.50;;;15.50;45.80;;;;;;5095844;28;20447;-71
2022/04/20 07:33:04;;;;;;;4.13;2.67;;;15.70;45.50;;;;;;5095663;28;20966;-71
2022/04/20 07:35:31;;;;;;;2.53;2.20;;;15.80;44.90;;;;;;5095843;28;20505;-71
2022/04/20 07:37:58;;;;;;;3.03;2.73;;;15.90;44.50;;;;;;5096285;28;20448;-71
2022/04/20 07:40:26;;;;;;;5.33;2.40;;;16.10;44.10;;;;;;5095948;28;20495;-71
2022/04/20 07:42:54;;;;;;;2.30;2.07;;;16.30;43.60;;;;;;5095665;28;20472;-71
2022/04/20 07:45:25;;;;;;;2.40;2.20;;;16.40;43.20;;;;;;5096369;28;20483;-72
2022/04/20 07:47:52;;;;;;;2.83;2.27;;;16.50;42.50;;;;;;5095773;28;20447;-72
2022/04/20 07:50:23;;;;;;;4.80;2.27;;;16.70;42.30;;;;;;5095706;28;20436;-72
2022/04/20 07:52:52;;;;;;;3.83;2.40;;;16.80;41.80;;;;;;5095607;28;20511;-71
2022/04/20 07:55:21;;;;;;;3.63;3.10;;;17.00;40.90;;;;;;5095623;28;20448;-71
2022/04/20 07:57:49;;;;;;;4.00;2.60;;;17.20;40.50;;;;;;5095546;28;20538;-71
2022/04/20 08:00:17;;;;;;;2.40;2.20;;;17.30;40.20;;;;;;5094931;28;20488;-71
2022/04/20 08:02:45;;;;;;;4.00;2.50;;;17.40;39.70;;;;;;5095431;28;20471;-70
2022/04/20 08:05:13;;;;;;;3.63;2.27;;;17.60;39.80;;;;;;5095279;28;20448;-70
2022/04/20 08:07:41;;;;;;;3.90;2.50;;;17.80;38.90;;;;;;5095113;28;20487;-71
2022/04/20 08:10:10;;;;;;;6.23;2.30;;;17.90;38.50;;;;;;5095322;28;20553;-71
2022/04/20 08:12:38;;;;;;;3.73;2.50;;;18.10;38.10;;;;;;5095432;28;20505;-71
2022/04/20 08:15:06;;;;;;;2.70;1.90;;;18.30;37.90;;;;;;5095593;28;20844;-71
2022/04/20 08:17:34;;;;;;;8.20;3.20;;;18.50;36.20;;;;;;5095460;28;20466;-71
2022/04/20 08:20:01;;;;;;;2.60;2.23;;;18.60;36.20;;;;;;5094897;28;20483;-71
2022/04/20 08:22:28;;;;;;;3.47;2.13;;;18.80;35.80;;;;;;5094901;28;20468;-71
2022/04/20 08:24:56;;;;;;;1.67;1.57;;;19.00;35.20;;;;;;5095080;28;20458;-71
2022/04/20 08:27:23;;;;;;;1.90;1.77;;;19.20;35.20;;;;;;5094992;28;20458;-71
2022/04/20 08:29:51;;;;;;;2.33;2.13;;;19.40;34.30;;;;;;5094531;28;20459;-72
2022/04/20 08:32:19;;;;;;;4.43;2.30;;;19.50;34.20;;;;;;5094400;28;20480;-72
2022/04/20 08:34:49;;;;;;;2.10;1.90;;;19.70;33.50;;;;;;5094698;28;20455;-72
2022/04/20 08:37:17;;;;;;;3.60;1.97;;;19.80;32.60;;;;;;5094755;28;20452;-72
2022/04/20 08:39:43;;;;;;;2.80;2.00;;;20.00;32.40;;;;;;5094531;28;20483;-71
2022/04/20 08:42:12;;;;;;;1.97;1.63;;;20.10;32.60;;;;;;5094564;28;20471;-71
2022/04/20 08:44:44;;;;;;;1.90;1.80;;;20.40;32.80;;;;;;5094845;28;20481;-72
2022/04/20 08:47:16;;;;;;;2.10;1.90;;;20.50;32.50;;;;;;5094548;28;20489;-72
2022/04/20 08:49:43;;;;;;;1.80;1.70;;;20.70;32.00;;;;;;5094056;28;20776;-71
2022/04/20 08:54:56;;;;;;;2.30;2.10;;;21.10;30.80;;;;;;5094555;28;20399;-72
2022/04/20 08:57:25;;;;;;;4.57;2.50;;;21.30;29.90;;;;;;5094220;28;20451;-72
2022/04/20 08:59:54;;;;;;;6.67;2.27;;;21.40;30.00;;;;;;5094242;28;20456;-72
2022/04/20 09:02:23;;;;;;;1.87;1.67;;;21.60;29.20;;;;;;5093962;28;20476;-72
2022/04/20 09:04:49;;;;;;;4.27;2.03;;;21.70;29.20;;;;;;5094205;28;20500;-72
2022/04/20 09:07:18;;;;;;;2.20;1.77;;;21.90;29.00;;;;;;5093855;28;20821;-72
2022/04/20 09:09:46;;;;;;;5.43;2.27;;;22.10;28.90;;;;;;5093525;28;20463;-72
2022/04/20 09:12:16;;;;;;;3.30;2.00;;;22.30;28.60;;;;;;5093923;28;20467;-72
2022/04/20 09:14:48;;;;;;;2.07;1.60;;;22.40;28.00;;;;;;5094123;28;20480;-72
2022/04/20 09:17:17;;;;;;;2.23;1.90;;;22.70;28.70;;;;;;5093982;28;20428;-72
2022/04/20 09:19:45;;;;;;;2.10;1.67;;;22.80;28.80;;;;;;5094082;28;20453;-72
2022/04/20 09:22:20;;;;;;;4.43;1.93;;;23.00;29.10;;;;;;5093536;28;20514;-72
2022/04/20 09:25:06;;;;;;;3.43;2.40;;;23.20;28.40;;;;;;5094246;28;20447;-72
2022/04/20 09:27:34;;;;;;;2.87;2.00;;;23.40;28.20;;;;;;5093676;28;20523;-71
2022/04/20 09:30:04;;;;;;;2.13;1.60;;;23.50;27.80;;;;;;5093486;28;20951;-71
2022/04/20 09:32:37;;;;;;;2.83;1.83;;;23.70;27.30;;;;;;5093681;28;20521;-72
2022/04/20 09:35:06;;;;;;;3.50;1.70;;;23.80;27.70;;;;;;5093853;28;20448;-72
2022/04/20 09:37:34;;;;;;;3.63;2.00;;;24.00;27.90;;;;;;5093422;28;20943;-72
2022/04/20 09:40:04;;;;;;;3.33;1.93;;;24.20;27.20;;;;;;5093137;28;20862;-72
2022/04/20 09:42:31;;;;;;;5.37;1.80;;;24.30;26.60;;;;;;5093643;28;20504;-72
2022/04/20 09:45:00;;;;;;;2.90;1.73;;;24.50;26.70;;;;;;5093690;28;20456;-72
2022/04/20 09:50:19;;;;;;;3.10;1.63;;;24.90;26.60;;;;;;5093842;28;20454;-72
2022/04/20 09:52:48;;;;;;;2.00;1.60;;;25.20;26.10;;;;;;5093583;28;20478;-72
2022/04/20 09:55:18;;;;;;;3.57;1.90;;;25.40;25.80;;;;;;5093471;28;20514;-72
2022/04/20 09:57:45;;;;;;;2.37;1.80;;;25.70;26.10;;;;;;5093609;28;20435;-72
2022/04/20 10:00:13;;;;;;;1.90;1.80;;;26.00;26.00;;;;;;5093368;28;20439;-72
2022/04/20 10:02:49;;;;;;;1.90;1.70;;;26.20;25.50;;;;;;5093403;28;20475;-72
2022/04/20 10:05:16;;;;;;;6.97;2.40;;;26.50;25.40;;;;;;5093458;28;20431;-72
2022/04/20 10:07:43;;;;;;;1.70;1.60;;;26.80;24.70;;;;;;5093379;28;20444;-72
2022/04/20 10:10:11;;;;;;;1.90;1.80;;;27.10;24.10;;;;;;5092996;28;20487;-72
2022/04/20 10:12:40;;;;;;;1.97;1.70;;;27.30;23.70;;;;;;5093056;28;20476;-72
2022/04/20 10:17:56;;;;;;;2.73;1.83;;;27.80;23.70;;;;;;5093363;28;20395;-72
2022/04/20 10:20:26;;;;;;;1.97;1.87;;;28.20;23.50;;;;;;5093238;28;20444;-72
2022/04/20 10:22:53;;;;;;;2.80;2.17;;;28.50;22.80;;;;;;5095760;28;20472;-72
2022/04/20 10:25:21;;;;;;;2.60;1.77;;;28.80;22.60;;;;;;5096980;28;20442;-72
2022/04/20 10:28:03;;;;;;;3.73;2.10;;;29.20;22.60;;;;;;5097167;28;20448;-72
2022/04/20 10:30:40;;;;;;;2.37;2.17;;;29.50;22.40;;;;;;5097151;28;20523;-71
2022/04/20 10:33:10;;;;;;;6.23;1.90;;;30.00;21.80;;;;;;5097159;28;20432;-70
2022/04/20 10:35:57;;;;;;;2.40;2.20;;;30.50;21.20;;;;;;5096902;28;20919;-70
2022/04/20 10:38:25;;;;;;;3.13;2.20;;;31.00;20.90;;;;;;5096658;28;20822;-70
2022/04/20 10:40:57;;;;;;;2.27;1.97;;;31.50;20.30;;;;;;5096609;28;20514;-70
2022/04/20 10:43:25;;;;;;;2.73;2.53;;;32.00;19.60;;;;;;5096705;28;20508;-70
2022/04/20 10:46:17;;;;;;;2.40;2.20;;;32.50;17.90;;;;;;5096757;28;20477;-70
2022/04/20 10:48:55;;;;;;;3.50;3.03;;;32.90;18.60;;;;;;5081868;28;20457;-70
2022/04/20 10:51:24;;;;;;;3.53;2.57;;;33.30;18.20;;;;;;5096460;28;20471;-70
2022/04/20 10:53:52;;;;;;;4.57;2.87;;;33.70;18.10;;;;;;5096883;28;20817;-70
2022/04/20 10:56:22;;;;;;;3.17;2.97;;;34.10;17.40;;;;;;5096520;28;20443;-70
2022/04/20 10:58:53;;;;;;;3.73;2.63;;;34.50;16.80;;;;;;5096508;28;20455;-70
2022/04/20 11:01:21;;;;;;;3.90;2.40;;;34.80;16.30;;;;;;5095899;28;20502;-70
2022/04/20 11:04:05;;;;;;;2.90;2.27;;;35.10;15.80;;;;;;5096338;28;20458;-70
2022/04/20 11:07:06;;;;;;;2.60;2.23;;;35.40;16.70;;;;;;5096378;28;20854;-70
2022/04/20 11:09:59;;;;;;;3.13;2.20;;;35.80;16.60;;;;;;5096080;28;20471;-70
2022/04/20 11:18:42;;;;;;;2.23;1.80;;;36.70;15.50;;;;;;5096135;28;20183;-70
2022/04/20 11:21:19;;;;;;;2.37;2.20;;;36.90;15.20;;;;;;5095544;28;20277;-70
2022/04/20 11:23:57;;;;;;;2.10;1.90;;;37.20;15.30;;;;;;5096063;28;20995;-70
2022/04/20 11:26:26;;;;;;;3.23;1.63;;;37.50;14.90;;;;;;5095952;28;20221;-70
2022/04/20 11:28:54;;;;;;;5.40;2.50;;;37.80;14.80;;;;;;5096076;28;20200;-70
2022/04/20 11:31:21;;;;;;;3.03;1.60;;;38.00;14.40;;;;;;5095708;28;20312;-70
2022/04/20 11:33:48;;;;;;;4.43;1.88;;;38.10;14.40;;;;;;5094949;28;20224;-70
2022/04/20 11:36:17;;;;;;;4.40;1.67;;;38.30;14.80;;;;;;5095672;28;20205;-70
2022/04/20 11:38:46;;;;;;;3.17;1.83;;;38.60;14.50;;;;;;5095596;28;20205;-70
2022/04/20 11:41:15;;;;;;;2.88;1.83;;;38.90;14.70;;;;;;5095253;28;20345;-70
2022/04/20 11:43:42;;;;;;;2.75;1.90;;;39.10;14.00;;;;;;5095505;28;20201;-70
2022/04/20 11:46:10;;;;;;;2.25;1.60;;;39.30;13.70;;;;;;5095544;28;20205;-70
2022/04/20 11:48:37;;;;;;;1.85;1.60;;;39.60;13.70;;;;;;5095358;28;20193;-70
2022/04/20 11:51:08;;;;;;;2.35;2.00;;;39.90;13.40;;;;;;5095419;28;20213;-70
2022/04/20 11:53:38;;;;;;;2.40;2.20;;;40.10;12.80;;;;;;5094954;28;20195;-70
2022/04/20 11:56:07;;;;;;;3.28;1.80;;;40.30;12.60;;;;;;5095456;28;20293;-70
2022/04/20 11:58:36;;;;;;;2.10;1.90;;;40.40;12.90;;;;;;5095026;28;20201;-70
2022/04/20 12:01:05;;;;;;;2.47;1.90;;;40.60;13.30;;;;;;5095078;28;20225;-70
2022/04/20 12:03:33;;;;;;;2.22;2.00;;;40.70;13.00;;;;;;5095057;28;20205;-70
2022/04/20 12:06:04;;;;;;;4.82;1.90;;;40.80;13.20;;;;;;5094620;28;20201;-70
2022/04/20 12:08:32;;;;;;;1.73;1.60;;;41.00;12.70;;;;;;5094956;28;20189;-70
2022/04/20 12:11:04;;;;;;;2.28;1.95;;;41.00;12.70;;;;;;5094846;28;20233;-70
2022/04/20 12:13:31;;;;;;;1.73;1.60;;;41.10;12.50;;;;;;5095030;28;20558;-70
2022/04/20 12:16:07;;;;;;;2.17;1.92;;;41.30;12.40;;;;;;5094981;28;20205;-71
2022/04/20 12:18:36;;;;;;;1.92;1.73;;;41.50;12.10;;;;;;5095715;28;20553;-71
2022/04/20 12:21:04;;;;;;;3.17;1.65;;;41.70;12.20;;;;;;5094850;28;20229;-70
2022/04/20 12:23:35;;;;;;;2.35;1.42;;;41.90;12.40;;;;;;5095054;28;20207;-70
2022/04/20 12:26:07;;;;;;;1.67;1.45;;;42.20;11.90;;;;;;5094893;28;20192;-70
2022/04/20 12:28:45;;;;;;;2.17;1.77;;;42.40;11.80;;;;;;5094715;28;20262;-70
2022/04/20 12:31:13;;;;;;;6.78;1.80;;;42.50;11.80;;;;;;5094753;28;20217;-70
2022/04/20 12:33:41;;;;;;;3.60;2.28;;;42.80;11.60;;;;;;5094721;28;20248;-70
2022/04/20 12:36:09;;;;;;;2.83;1.80;;;42.90;11.60;;;;;;5094765;28;20197;-71
2022/04/20 12:38:47;;;;;;;3.15;2.35;;;43.10;11.30;;;;;;5095183;28;20201;-71
2022/04/20 12:41:38;;;;;;;4.13;2.10;;;43.20;10.70;;;;;;5094875;28;20220;-70
2022/04/20 12:44:40;;;;;;;4.40;1.92;;;43.00;10.90;;;;;;5094983;28;20192;-70
2022/04/20 12:47:39;;;;;;;3.40;2.10;;;42.80;11.30;;;;;;5094543;28;20581;-71
2022/04/20 12:50:20;;;;;;;3.25;2.00;;;42.80;10.80;;;;;;5094561;28;20198;-71
2022/04/20 12:52:52;;;;;;;3.45;2.03;;;42.60;11.40;;;;;;5094436;28;20217;-71
2022/04/20 12:55:19;;;;;;;3.13;1.90;;;42.70;11.30;;;;;;5094132;28;20216;-71
2022/04/20 13:03:34;;;;;;;2.20;2.00;;;43.50;11.10;;;;;;5094486;28;20234;-71
2022/04/20 13:06:01;;;;;;;4.05;2.40;;;43.70;10.80;;;;;;5094237;28;20189;-71
2022/04/20 13:08:28;;;;;;;3.00;2.00;;;43.90;10.90;;;;;;5094192;28;20197;-71
2022/04/20 13:10:54;;;;;;;2.45;2.25;;;44.00;10.90;;;;;;5093596;28;20229;-71
2022/04/20 13:13:25;;;;;;;3.70;1.60;;;44.20;10.30;;;;;;5093773;28;20577;-71
2022/04/20 13:15:53;;;;;;;3.97;1.80;;;44.30;10.00;;;;;;5093371;28;20197;-71
2022/04/20 13:18:20;;;;;;;1.70;1.60;;;44.50;10.30;;;;;;5093940;28;20208;-70
2022/04/20 13:20:47;;;;;;;3.22;2.70;;;44.60;10.40;;;;;;5093452;28;20664;-71
2022/04/20 13:23:14;;;;;;;2.45;2.13;;;44.80;10.10;;;;;;5093738;28;20220;-71
2022/04/20 13:28:26;;;;;;;2.78;2.00;;;44.90;10.10;;;;;;5093737;28;20554;-71
2022/04/20 13:30:53;;;;;;;4.47;2.40;;;45.10;9.90;;;;;;5093834;28;20235;-71
2022/04/20 13:33:21;;;;;;;3.42;1.83;;;45.20;9.80;;;;;;5093702;28;20223;-71